sensor_id;sensor_type;location;lat;lon;timestamp;temperature;humidity
74540;SHT31;63087;51.086;-115.332;2022-09-09T00:09:50;18.77;33.06
74540;SHT31;63087;51.086;-115.332;2022-09-09T00:15:21;18.73;33.10
74540;SHT31;63087;51.086;-115.332;2022-09-09T00:23:39;18.39;33.24
74540;SHT31;63087;51.086;-115.332;2022-09-09T00:32:53;18.06;33.81
74540;SHT31;63087;51.086;-115.332;2022-09-09T00:35:12;17.91;34.00
74540;SHT31;63087;51.086;-115.332;2022-09-09T00:37:56;17.71;34.23
74540;SHT31;63087;51.086;-115.332;2022-09-09T00:43:24;17.34;34.75
74540;SHT31;63087;51.086;-115.332;2022-09-09T00:49:00;17.04;35.42
74540;SHT31;63087;51.086;-115.332;2022-09-09T00:54:40;16.84;35.81
74540;SHT31;63087;51.086;-115.332;2022-09-09T00:57:33;16.70;35.82
74540;SHT31;63087;51.086;-115.332;2022-09-09T01:00:19;16.59;36.06
74540;SHT31;63087;51.086;-115.332;2022-09-09T01:09:02;16.14;36.78
74540;SHT31;63087;51.086;-115.332;2022-09-09T01:12:07;15.97;37.06
74540;SHT31;63087;51.086;-115.332;2022-09-09T01:14:49;15.82;37.35
74540;SHT31;63087;51.086;-115.332;2022-09-09T01:18:02;15.66;37.66
74540;SHT31;63087;51.086;-115.332;2022-09-09T01:20:35;15.49;38.01
74540;SHT31;63087;51.086;-115.332;2022-09-09T01:23:38;15.33;38.33
74540;SHT31;63087;51.086;-115.332;2022-09-09T01:29:01;15.06;39.03
74540;SHT31;63087;51.086;-115.332;2022-09-09T01:31:30;14.94;39.36
74540;SHT31;63087;51.086;-115.332;2022-09-09T01:34:10;14.79;39.67
74540;SHT31;63087;51.086;-115.332;2022-09-09T01:36:46;14.66;39.94
74540;SHT31;63087;51.086;-115.332;2022-09-09T01:39:33;14.54;40.27
74540;SHT31;63087;51.086;-115.332;2022-09-09T01:42:03;14.44;40.58
74540;SHT31;63087;51.086;-115.332;2022-09-09T01:44:34;14.34;40.85
74540;SHT31;63087;51.086;-115.332;2022-09-09T01:47:03;14.27;41.23
74540;SHT31;63087;51.086;-115.332;2022-09-09T01:49:32;14.18;41.42
74540;SHT31;63087;51.086;-115.332;2022-09-09T01:51:59;14.08;41.64
74540;SHT31;63087;51.086;-115.332;2022-09-09T01:54:27;13.97;42.00
74540;SHT31;63087;51.086;-115.332;2022-09-09T01:57:12;13.85;42.40
74540;SHT31;63087;51.086;-115.332;2022-09-09T02:00:00;13.71;42.68
74540;SHT31;63087;51.086;-115.332;2022-09-09T02:03:00;13.58;43.03
74540;SHT31;63087;51.086;-115.332;2022-09-09T02:05:40;13.44;43.38
74540;SHT31;63087;51.086;-115.332;2022-09-09T02:08:20;13.31;43.78
74540;SHT31;63087;51.086;-115.332;2022-09-09T02:10:59;13.18;44.32
74540;SHT31;63087;51.086;-115.332;2022-09-09T02:13:56;13.04;44.83
74540;SHT31;63087;51.086;-115.332;2022-09-09T02:17:31;12.92;45.26
74540;SHT31;63087;51.086;-115.332;2022-09-09T02:19:46;12.80;45.52
74540;SHT31;63087;51.086;-115.332;2022-09-09T02:22:29;12.66;45.86
74540;SHT31;63087;51.086;-115.332;2022-09-09T02:25:00;12.55;46.25
74540;SHT31;63087;51.086;-115.332;2022-09-09T02:27:30;12.45;46.52
74540;SHT31;63087;51.086;-115.332;2022-09-09T02:29:58;12.37;46.79
74540;SHT31;63087;51.086;-115.332;2022-09-09T02:32:28;12.26;47.20
74540;SHT31;63087;51.086;-115.332;2022-09-09T02:35:15;12.16;47.58
74540;SHT31;63087;51.086;-115.332;2022-09-09T02:37:50;12.06;47.90
74540;SHT31;63087;51.086;-115.332;2022-09-09T02:40:24;11.95;48.30
74540;SHT31;63087;51.086;-115.332;2022-09-09T02:42:53;11.86;48.63
74540;SHT31;63087;51.086;-115.332;2022-09-09T02:45:25;11.77;48.87
74540;SHT31;63087;51.086;-115.332;2022-09-09T02:57:11;11.35;50.47
74540;SHT31;63087;51.086;-115.332;2022-09-09T02:59:57;11.26;50.71
74540;SHT31;63087;51.086;-115.332;2022-09-09T03:02:26;11.15;50.94
74540;SHT31;63087;51.086;-115.332;2022-09-09T03:04:53;11.07;51.18
74540;SHT31;63087;51.086;-115.332;2022-09-09T03:07:22;11.02;51.35
74540;SHT31;63087;51.086;-115.332;2022-09-09T03:09:49;10.94;51.62
74540;SHT31;63087;51.086;-115.332;2022-09-09T03:12:17;10.88;51.82
74540;SHT31;63087;51.086;-115.332;2022-09-09T03:14:44;10.81;52.04
74540;SHT31;63087;51.086;-115.332;2022-09-09T03:17:12;10.73;52.22
74540;SHT31;63087;51.086;-115.332;2022-09-09T03:19:39;10.67;52.51
74540;SHT31;63087;51.086;-115.332;2022-09-09T03:22:08;10.59;52.73
74540;SHT31;63087;51.086;-115.332;2022-09-09T03:24:37;10.53;53.01
74540;SHT31;63087;51.086;-115.332;2022-09-09T03:27:04;10.47;53.21
74540;SHT31;63087;51.086;-115.332;2022-09-09T03:29:32;10.43;53.44
74540;SHT31;63087;51.086;-115.332;2022-09-09T03:32:00;10.37;53.65
74540;SHT31;63087;51.086;-115.332;2022-09-09T03:34:27;10.30;53.67
74540;SHT31;63087;51.086;-115.332;2022-09-09T03:36:56;10.24;53.88
74540;SHT31;63087;51.086;-115.332;2022-09-09T03:39:23;10.18;54.08
74540;SHT31;63087;51.086;-115.332;2022-09-09T03:41:57;10.14;54.28
74540;SHT31;63087;51.086;-115.332;2022-09-09T03:44:24;10.08;54.50
74540;SHT31;63087;51.086;-115.332;2022-09-09T03:46:51;10.02;54.66
74540;SHT31;63087;51.086;-115.332;2022-09-09T03:49:19;9.98;54.81
74540;SHT31;63087;51.086;-115.332;2022-09-09T03:51:47;9.94;54.95
74540;SHT31;63087;51.086;-115.332;2022-09-09T03:54:14;9.89;55.12
74540;SHT31;63087;51.086;-115.332;2022-09-09T03:56:41;9.84;55.22
74540;SHT31;63087;51.086;-115.332;2022-09-09T03:59:09;9.77;55.41
74540;SHT31;63087;51.086;-115.332;2022-09-09T04:01:37;9.73;55.66
74540;SHT31;63087;51.086;-115.332;2022-09-09T04:04:05;9.69;55.76
74540;SHT31;63087;51.086;-115.332;2022-09-09T04:06:33;9.68;55.70
74540;SHT31;63087;51.086;-115.332;2022-09-09T04:09:00;9.64;55.72
74540;SHT31;63087;51.086;-115.332;2022-09-09T04:11:28;9.63;55.73
74540;SHT31;63087;51.086;-115.332;2022-09-09T04:13:56;9.60;55.61
74540;SHT31;63087;51.086;-115.332;2022-09-09T04:16:23;9.54;55.75
74540;SHT31;63087;51.086;-115.332;2022-09-09T04:18:51;9.46;55.94
74540;SHT31;63087;51.086;-115.332;2022-09-09T04:21:18;9.37;56.50
74540;SHT31;63087;51.086;-115.332;2022-09-09T04:23:46;9.30;56.85
74540;SHT31;63087;51.086;-115.332;2022-09-09T04:26:14;9.24;57.24
74540;SHT31;63087;51.086;-115.332;2022-09-09T04:28:41;9.22;57.39
74540;SHT31;63087;51.086;-115.332;2022-09-09T04:31:13;9.20;57.33
74540;SHT31;63087;51.086;-115.332;2022-09-09T04:33:48;9.15;57.46
74540;SHT31;63087;51.086;-115.332;2022-09-09T04:36:18;9.11;57.63
74540;SHT31;63087;51.086;-115.332;2022-09-09T04:38:46;9.09;57.90
74540;SHT31;63087;51.086;-115.332;2022-09-09T04:41:14;9.08;58.13
74540;SHT31;63087;51.086;-115.332;2022-09-09T04:43:41;9.06;58.30
74540;SHT31;63087;51.086;-115.332;2022-09-09T04:46:09;9.04;58.52
74540;SHT31;63087;51.086;-115.332;2022-09-09T04:48:36;9.01;58.62
74540;SHT31;63087;51.086;-115.332;2022-09-09T04:51:04;8.98;58.73
74540;SHT31;63087;51.086;-115.332;2022-09-09T04:53:34;8.95;58.89
74540;SHT31;63087;51.086;-115.332;2022-09-09T04:58:41;8.97;59.02
74540;SHT31;63087;51.086;-115.332;2022-09-09T05:01:16;8.98;59.00
74540;SHT31;63087;51.086;-115.332;2022-09-09T05:03:46;8.97;58.93
74540;SHT31;63087;51.086;-115.332;2022-09-09T05:06:15;8.99;58.90
74540;SHT31;63087;51.086;-115.332;2022-09-09T05:08:48;9.03;58.90
74540;SHT31;63087;51.086;-115.332;2022-09-09T05:11:22;9.08;58.92
74540;SHT31;63087;51.086;-115.332;2022-09-09T05:13:55;9.13;58.80
74540;SHT31;63087;51.086;-115.332;2022-09-09T05:16:22;9.20;58.67
74540;SHT31;63087;51.086;-115.332;2022-09-09T05:18:50;9.24;58.60
74540;SHT31;63087;51.086;-115.332;2022-09-09T05:21:18;9.30;58.59
74540;SHT31;63087;51.086;-115.332;2022-09-09T05:23:49;9.33;58.49
74540;SHT31;63087;51.086;-115.332;2022-09-09T05:26:17;9.35;58.49
74540;SHT31;63087;51.086;-115.332;2022-09-09T05:28:47;9.39;58.60
74540;SHT31;63087;51.086;-115.332;2022-09-09T05:31:15;9.43;58.60
74540;SHT31;63087;51.086;-115.332;2022-09-09T05:33:46;9.47;58.55
74540;SHT31;63087;51.086;-115.332;2022-09-09T05:36:16;9.51;58.48
74540;SHT31;63087;51.086;-115.332;2022-09-09T05:38:45;9.54;58.34
74540;SHT31;63087;51.086;-115.332;2022-09-09T05:41:14;9.56;58.31
74540;SHT31;63087;51.086;-115.332;2022-09-09T05:43:43;9.57;58.27
74540;SHT31;63087;51.086;-115.332;2022-09-09T05:46:13;9.59;58.24
74540;SHT31;63087;51.086;-115.332;2022-09-09T05:48:47;9.63;58.28
74540;SHT31;63087;51.086;-115.332;2022-09-09T05:51:18;9.65;58.27
74540;SHT31;63087;51.086;-115.332;2022-09-09T05:53:48;9.70;58.39
74540;SHT31;63087;51.086;-115.332;2022-09-09T05:56:17;9.72;58.48
74540;SHT31;63087;51.086;-115.332;2022-09-09T05:58:53;9.74;58.76
74540;SHT31;63087;51.086;-115.332;2022-09-09T06:01:22;9.78;58.84
74540;SHT31;63087;51.086;-115.332;2022-09-09T06:04:01;9.84;58.78
74540;SHT31;63087;51.086;-115.332;2022-09-09T06:06:35;9.88;58.77
74540;SHT31;63087;51.086;-115.332;2022-09-09T06:09:06;9.95;58.57
74540;SHT31;63087;51.086;-115.332;2022-09-09T06:11:39;10.01;58.56
74540;SHT31;63087;51.086;-115.332;2022-09-09T06:14:07;10.06;59.13
74540;SHT31;63087;51.086;-115.332;2022-09-09T06:16:36;10.08;60.04
74540;SHT31;63087;51.086;-115.332;2022-09-09T06:19:03;10.10;60.74
74540;SHT31;63087;51.086;-115.332;2022-09-09T06:21:31;10.09;62.03
74540;SHT31;63087;51.086;-115.332;2022-09-09T06:24:04;10.07;63.38
74540;SHT31;63087;51.086;-115.332;2022-09-09T06:26:33;10.01;64.25
74540;SHT31;63087;51.086;-115.332;2022-09-09T06:29:06;9.96;64.91
74540;SHT31;63087;51.086;-115.332;2022-09-09T06:31:35;9.93;65.39
74540;SHT31;63087;51.086;-115.332;2022-09-09T06:34:07;9.89;65.74
74540;SHT31;63087;51.086;-115.332;2022-09-09T06:36:35;9.85;66.29
74540;SHT31;63087;51.086;-115.332;2022-09-09T06:39:05;9.78;66.63
74540;SHT31;63087;51.086;-115.332;2022-09-09T06:41:36;9.71;66.89
74540;SHT31;63087;51.086;-115.332;2022-09-09T06:44:04;9.67;66.95
74540;SHT31;63087;51.086;-115.332;2022-09-09T06:46:31;9.66;67.86
74540;SHT31;63087;51.086;-115.332;2022-09-09T06:48:58;9.68;68.38
74540;SHT31;63087;51.086;-115.332;2022-09-09T06:51:28;9.68;68.72
74540;SHT31;63087;51.086;-115.332;2022-09-09T06:53:58;9.68;69.13
74540;SHT31;63087;51.086;-115.332;2022-09-09T06:56:34;9.65;69.45
74540;SHT31;63087;51.086;-115.332;2022-09-09T06:59:06;9.63;70.02
74540;SHT31;63087;51.086;-115.332;2022-09-09T07:01:36;9.60;70.21
74540;SHT31;63087;51.086;-115.332;2022-09-09T07:04:09;9.53;70.29
74540;SHT31;63087;51.086;-115.332;2022-09-09T07:06:37;9.47;70.48
74540;SHT31;63087;51.086;-115.332;2022-09-09T07:09:12;9.36;71.26
74540;SHT31;63087;51.086;-115.332;2022-09-09T07:11:42;9.28;71.84
74540;SHT31;63087;51.086;-115.332;2022-09-09T07:14:18;9.17;71.93
74540;SHT31;63087;51.086;-115.332;2022-09-09T07:16:46;9.02;71.92
74540;SHT31;63087;51.086;-115.332;2022-09-09T07:19:13;8.85;71.80
74540;SHT31;63087;51.086;-115.332;2022-09-09T07:21:41;8.68;71.86
74540;SHT31;63087;51.086;-115.332;2022-09-09T07:24:09;8.53;72.19
74540;SHT31;63087;51.086;-115.332;2022-09-09T07:26:37;8.45;72.46
74540;SHT31;63087;51.086;-115.332;2022-09-09T07:29:05;8.38;72.54
74540;SHT31;63087;51.086;-115.332;2022-09-09T07:31:35;8.32;72.68
74540;SHT31;63087;51.086;-115.332;2022-09-09T07:34:05;8.26;72.89
74540;SHT31;63087;51.086;-115.332;2022-09-09T07:36:33;8.20;73.20
74540;SHT31;63087;51.086;-115.332;2022-09-09T07:39:05;8.16;73.46
74540;SHT31;63087;51.086;-115.332;2022-09-09T07:44:15;8.10;74.40
74540;SHT31;63087;51.086;-115.332;2022-09-09T07:46:47;8.06;74.66
74540;SHT31;63087;51.086;-115.332;2022-09-09T07:49:14;8.01;74.83
74540;SHT31;63087;51.086;-115.332;2022-09-09T07:51:42;7.96;75.04
74540;SHT31;63087;51.086;-115.332;2022-09-09T07:54:13;7.95;75.06
74540;SHT31;63087;51.086;-115.332;2022-09-09T07:56:46;7.94;75.17
74540;SHT31;63087;51.086;-115.332;2022-09-09T07:59:14;7.93;75.37
74540;SHT31;63087;51.086;-115.332;2022-09-09T08:01:42;7.93;75.39
74540;SHT31;63087;51.086;-115.332;2022-09-09T08:04:14;7.90;75.39
74540;SHT31;63087;51.086;-115.332;2022-09-09T08:06:46;7.86;75.38
74540;SHT31;63087;51.086;-115.332;2022-09-09T08:09:18;7.81;75.48
74540;SHT31;63087;51.086;-115.332;2022-09-09T08:11:46;7.74;75.33
74540;SHT31;63087;51.086;-115.332;2022-09-09T08:14:14;7.66;75.26
74540;SHT31;63087;51.086;-115.332;2022-09-09T08:16:42;7.58;75.39
74540;SHT31;63087;51.086;-115.332;2022-09-09T08:19:12;7.51;75.68
74540;SHT31;63087;51.086;-115.332;2022-09-09T08:21:43;7.45;76.01
74540;SHT31;63087;51.086;-115.332;2022-09-09T08:24:11;7.45;76.17
74540;SHT31;63087;51.086;-115.332;2022-09-09T08:26:43;7.43;76.41
74540;SHT31;63087;51.086;-115.332;2022-09-09T08:29:14;7.44;76.71
74540;SHT31;63087;51.086;-115.332;2022-09-09T08:34:16;7.46;77.16
74540;SHT31;63087;51.086;-115.332;2022-09-09T08:36:48;7.46;77.12
74540;SHT31;63087;51.086;-115.332;2022-09-09T08:39:17;7.43;77.05
74540;SHT31;63087;51.086;-115.332;2022-09-09T08:45:03;7.35;77.51
74540;SHT31;63087;51.086;-115.332;2022-09-09T08:51:01;7.25;77.85
74540;SHT31;63087;51.086;-115.332;2022-09-09T08:53:42;7.25;77.96
74540;SHT31;63087;51.086;-115.332;2022-09-09T08:56:18;7.26;78.08
74540;SHT31;63087;51.086;-115.332;2022-09-09T08:58:51;7.28;78.18
74540;SHT31;63087;51.086;-115.332;2022-09-09T09:09:45;7.32;78.61
74540;SHT31;63087;51.086;-115.332;2022-09-09T09:12:30;7.31;78.73
74540;SHT31;63087;51.086;-115.332;2022-09-09T09:15:21;7.31;78.89
74540;SHT31;63087;51.086;-115.332;2022-09-09T09:17:57;7.30;79.04
74540;SHT31;63087;51.086;-115.332;2022-09-09T09:20:29;7.33;79.06
74540;SHT31;63087;51.086;-115.332;2022-09-09T09:23:19;7.33;79.10
74540;SHT31;63087;51.086;-115.332;2022-09-09T09:25:52;7.36;79.19
74540;SHT31;63087;51.086;-115.332;2022-09-09T09:28:27;7.37;79.12
74540;SHT31;63087;51.086;-115.332;2022-09-09T09:31:03;7.37;79.12
74540;SHT31;63087;51.086;-115.332;2022-09-09T09:36:19;7.34;79.10
74540;SHT31;63087;51.086;-115.332;2022-09-09T09:39:04;7.32;79.19
74540;SHT31;63087;51.086;-115.332;2022-09-09T09:41:36;7.29;79.22
74540;SHT31;63087;51.086;-115.332;2022-09-09T09:49:56;7.27;79.52
74540;SHT31;63087;51.086;-115.332;2022-09-09T09:52:26;7.28;79.51
74540;SHT31;63087;51.086;-115.332;2022-09-09T09:54:57;7.30;79.51
74540;SHT31;63087;51.086;-115.332;2022-09-09T09:57:31;7.31;79.60
74540;SHT31;63087;51.086;-115.332;2022-09-09T10:00:13;7.32;79.64
74540;SHT31;63087;51.086;-115.332;2022-09-09T10:02:43;7.32;79.74
74540;SHT31;63087;51.086;-115.332;2022-09-09T10:08:05;7.32;79.91
74540;SHT31;63087;51.086;-115.332;2022-09-09T10:10:46;7.29;80.01
74540;SHT31;63087;51.086;-115.332;2022-09-09T10:19:42;7.29;80.20
74540;SHT31;63087;51.086;-115.332;2022-09-09T10:22:28;7.32;80.20
74540;SHT31;63087;51.086;-115.332;2022-09-09T10:25:19;7.34;80.14
74540;SHT31;63087;51.086;-115.332;2022-09-09T10:34:18;7.34;80.10
74540;SHT31;63087;51.086;-115.332;2022-09-09T10:37:52;7.31;80.22
74540;SHT31;63087;51.086;-115.332;2022-09-09T10:55:20;7.25;80.30
74540;SHT31;63087;51.086;-115.332;2022-09-09T10:57:57;7.24;80.23
74540;SHT31;63087;51.086;-115.332;2022-09-09T11:00:36;7.23;80.20
74540;SHT31;63087;51.086;-115.332;2022-09-09T11:03:17;7.22;80.22
74540;SHT31;63087;51.086;-115.332;2022-09-09T11:06:21;7.20;80.20
74540;SHT31;63087;51.086;-115.332;2022-09-09T11:08:45;7.17;80.18
74540;SHT31;63087;51.086;-115.332;2022-09-09T11:11:29;7.14;80.21
74540;SHT31;63087;51.086;-115.332;2022-09-09T11:14:22;7.10;80.37
74540;SHT31;63087;51.086;-115.332;2022-09-09T11:17:18;7.12;80.40
74540;SHT31;63087;51.086;-115.332;2022-09-09T11:20:01;7.12;80.39
74540;SHT31;63087;51.086;-115.332;2022-09-09T11:22:32;7.14;80.40
74540;SHT31;63087;51.086;-115.332;2022-09-09T11:44:49;6.99;81.00
74540;SHT31;63087;51.086;-115.332;2022-09-09T11:47:20;7.00;81.04
74540;SHT31;63087;51.086;-115.332;2022-09-09T11:50:06;7.00;81.10
74540;SHT31;63087;51.086;-115.332;2022-09-09T11:55:46;6.99;80.95
74540;SHT31;63087;51.086;-115.332;2022-09-09T11:58:17;6.97;80.92
74540;SHT31;63087;51.086;-115.332;2022-09-09T12:00:47;6.96;81.00
74540;SHT31;63087;51.086;-115.332;2022-09-09T12:06:17;6.92;81.01
74540;SHT31;63087;51.086;-115.332;2022-09-09T12:11:52;6.83;81.18
74540;SHT31;63087;51.086;-115.332;2022-09-09T12:14:43;6.86;81.21
74540;SHT31;63087;51.086;-115.332;2022-09-09T12:17:52;6.88;81.21
74540;SHT31;63087;51.086;-115.332;2022-09-09T12:20:30;6.90;81.21
74540;SHT31;63087;51.086;-115.332;2022-09-09T12:23:12;6.91;81.20
74540;SHT31;63087;51.086;-115.332;2022-09-09T12:40:27;6.79;81.50
74540;SHT31;63087;51.086;-115.332;2022-09-09T12:43:00;6.79;81.50
74540;SHT31;63087;51.086;-115.332;2022-09-09T12:45:50;6.80;81.49
74540;SHT31;63087;51.086;-115.332;2022-09-09T12:48:36;6.82;81.44
74540;SHT31;63087;51.086;-115.332;2022-09-09T12:51:43;6.81;81.35
74540;SHT31;63087;51.086;-115.332;2022-09-09T12:54:04;6.78;81.19
74540;SHT31;63087;51.086;-115.332;2022-09-09T12:56:31;6.74;81.11
74540;SHT31;63087;51.086;-115.332;2022-09-09T12:59:00;6.69;81.12
74540;SHT31;63087;51.086;-115.332;2022-09-09T13:01:28;6.64;81.13
74540;SHT31;63087;51.086;-115.332;2022-09-09T13:04:01;6.59;81.22
74540;SHT31;63087;51.086;-115.332;2022-09-09T13:06:45;6.55;81.34
74540;SHT31;63087;51.086;-115.332;2022-09-09T13:09:12;6.50;81.40
74540;SHT31;63087;51.086;-115.332;2022-09-09T13:11:43;6.51;81.50
74540;SHT31;63087;51.086;-115.332;2022-09-09T13:14:26;6.52;81.62
74540;SHT31;63087;51.086;-115.332;2022-09-09T13:17:05;6.55;81.68
74540;SHT31;63087;51.086;-115.332;2022-09-09T13:19:51;6.57;81.80
74540;SHT31;63087;51.086;-115.332;2022-09-09T13:25:03;6.62;81.82
74540;SHT31;63087;51.086;-115.332;2022-09-09T13:27:32;6.62;81.86
74540;SHT31;63087;51.086;-115.332;2022-09-09T13:30:24;6.61;81.90
74540;SHT31;63087;51.086;-115.332;2022-09-09T13:38:23;6.62;82.10
74540;SHT31;63087;51.086;-115.332;2022-09-09T13:43:24;6.65;82.03
74540;SHT31;63087;51.086;-115.332;2022-09-09T13:45:56;6.63;81.85
74540;SHT31;63087;51.086;-115.332;2022-09-09T13:48:30;6.61;81.72
74540;SHT31;63087;51.086;-115.332;2022-09-09T13:51:02;6.58;81.70
74540;SHT31;63087;51.086;-115.332;2022-09-09T13:53:31;6.55;81.68
74540;SHT31;63087;51.086;-115.332;2022-09-09T13:56:02;6.51;81.65
74540;SHT31;63087;51.086;-115.332;2022-09-09T13:58:32;6.45;81.60
74540;SHT31;63087;51.086;-115.332;2022-09-09T14:00:59;6.39;81.64
74540;SHT31;63087;51.086;-115.332;2022-09-09T14:03:27;6.36;81.69
74540;SHT31;63087;51.086;-115.332;2022-09-09T14:05:57;6.34;81.61
74540;SHT31;63087;51.086;-115.332;2022-09-09T14:08:25;6.33;81.53
74540;SHT31;63087;51.086;-115.332;2022-09-09T14:11:04;6.32;81.49
74540;SHT31;63087;51.086;-115.332;2022-09-09T14:13:36;6.31;81.41
74540;SHT31;63087;51.086;-115.332;2022-09-09T14:16:04;6.30;81.45
74540;SHT31;63087;51.086;-115.332;2022-09-09T14:18:31;6.28;81.40
74540;SHT31;63087;51.086;-115.332;2022-09-09T14:20:59;6.26;81.50
74540;SHT31;63087;51.086;-115.332;2022-09-09T14:23:27;6.24;81.50
74540;SHT31;63087;51.086;-115.332;2022-09-09T14:25:55;6.21;81.56
74540;SHT31;63087;51.086;-115.332;2022-09-09T14:28:22;6.18;81.60
74540;SHT31;63087;51.086;-115.332;2022-09-09T14:30:51;6.15;81.60
74540;SHT31;63087;51.086;-115.332;2022-09-09T14:33:18;6.15;81.69
74540;SHT31;63087;51.086;-115.332;2022-09-09T14:35:45;6.14;81.60
74540;SHT31;63087;51.086;-115.332;2022-09-09T14:38:12;6.14;81.61
74540;SHT31;63087;51.086;-115.332;2022-09-09T14:40:39;6.17;81.72
74540;SHT31;63087;51.086;-115.332;2022-09-09T14:43:11;6.24;81.82
74540;SHT31;63087;51.086;-115.332;2022-09-09T14:45:39;6.29;81.94
74540;SHT31;63087;51.086;-115.332;2022-09-09T14:48:06;6.34;82.09
74540;SHT31;63087;51.086;-115.332;2022-09-09T14:50:43;6.40;82.25
74540;SHT31;63087;51.086;-115.332;2022-09-09T14:53:10;6.45;82.35
74540;SHT31;63087;51.086;-115.332;2022-09-09T14:55:38;6.50;82.39
74540;SHT31;63087;51.086;-115.332;2022-09-09T14:58:04;6.57;82.39
74540;SHT31;63087;51.086;-115.332;2022-09-09T15:00:31;6.62;82.30
74540;SHT31;63087;51.086;-115.332;2022-09-09T15:02:59;6.67;82.24
74540;SHT31;63087;51.086;-115.332;2022-09-09T15:05:26;6.77;82.22
74540;SHT31;63087;51.086;-115.332;2022-09-09T15:07:54;6.87;82.29
74540;SHT31;63087;51.086;-115.332;2022-09-09T15:10:21;6.95;82.33
74540;SHT31;63087;51.086;-115.332;2022-09-09T15:12:48;7.00;82.27
74540;SHT31;63087;51.086;-115.332;2022-09-09T15:15:15;7.06;82.22
74540;SHT31;63087;51.086;-115.332;2022-09-09T15:17:43;7.10;82.10
74540;SHT31;63087;51.086;-115.332;2022-09-09T15:20:10;7.22;82.11
74540;SHT31;63087;51.086;-115.332;2022-09-09T15:22:37;7.34;82.14
74540;SHT31;63087;51.086;-115.332;2022-09-09T15:25:05;7.51;81.82
74540;SHT31;63087;51.086;-115.332;2022-09-09T15:27:33;7.66;81.72
74540;SHT31;63087;51.086;-115.332;2022-09-09T15:30:00;7.74;81.71
74540;SHT31;63087;51.086;-115.332;2022-09-09T15:32:28;7.80;81.42
74540;SHT31;63087;51.086;-115.332;2022-09-09T15:34:54;7.87;81.48
74540;SHT31;63087;51.086;-115.332;2022-09-09T15:37:22;7.91;81.38
74540;SHT31;63087;51.086;-115.332;2022-09-09T15:39:49;7.94;80.80
74540;SHT31;63087;51.086;-115.332;2022-09-09T15:42:16;8.01;80.52
74540;SHT31;63087;51.086;-115.332;2022-09-09T15:44:43;8.11;80.82
74540;SHT31;63087;51.086;-115.332;2022-09-09T15:47:11;8.22;80.40
74540;SHT31;63087;51.086;-115.332;2022-09-09T15:49:38;8.25;80.18
74540;SHT31;63087;51.086;-115.332;2022-09-09T15:52:05;8.25;80.08
74540;SHT31;63087;51.086;-115.332;2022-09-09T15:54:36;8.22;79.69
74540;SHT31;63087;51.086;-115.332;2022-09-09T15:57:05;8.19;79.79
74540;SHT31;63087;51.086;-115.332;2022-09-09T15:59:37;8.15;79.85
74540;SHT31;63087;51.086;-115.332;2022-09-09T16:02:05;8.13;79.86
74540;SHT31;63087;51.086;-115.332;2022-09-09T16:04:32;8.09;79.93
74540;SHT31;63087;51.086;-115.332;2022-09-09T16:07:02;8.05;79.67
74540;SHT31;63087;51.086;-115.332;2022-09-09T16:09:31;8.01;79.79
74540;SHT31;63087;51.086;-115.332;2022-09-09T16:11:59;7.96;79.81
74540;SHT31;63087;51.086;-115.332;2022-09-09T16:14:31;7.94;79.68
74540;SHT31;63087;51.086;-115.332;2022-09-09T16:17:01;7.96;79.55
74540;SHT31;63087;51.086;-115.332;2022-09-09T16:19:31;7.98;79.63
74540;SHT31;63087;51.086;-115.332;2022-09-09T16:22:00;8.02;79.35
74540;SHT31;63087;51.086;-115.332;2022-09-09T16:24:28;8.06;79.27
74540;SHT31;63087;51.086;-115.332;2022-09-09T16:26:55;8.10;79.39
74540;SHT31;63087;51.086;-115.332;2022-09-09T16:29:23;8.13;79.62
74540;SHT31;63087;51.086;-115.332;2022-09-09T16:31:53;8.15;79.71
74540;SHT31;63087;51.086;-115.332;2022-09-09T16:34:21;8.20;79.74
74540;SHT31;63087;51.086;-115.332;2022-09-09T16:36:48;8.23;79.73
74540;SHT31;63087;51.086;-115.332;2022-09-09T16:39:17;8.28;79.47
74540;SHT31;63087;51.086;-115.332;2022-09-09T16:41:46;8.39;79.55
74540;SHT31;63087;51.086;-115.332;2022-09-09T16:44:15;8.48;79.40
74540;SHT31;63087;51.086;-115.332;2022-09-09T16:46:45;8.58;79.14
74540;SHT31;63087;51.086;-115.332;2022-09-09T16:49:17;8.69;78.90
74540;SHT31;63087;51.086;-115.332;2022-09-09T16:51:48;8.78;79.11
74540;SHT31;63087;51.086;-115.332;2022-09-09T16:54:19;8.88;79.10
74540;SHT31;63087;51.086;-115.332;2022-09-09T16:56:47;9.00;79.08
74540;SHT31;63087;51.086;-115.332;2022-09-09T16:59:18;9.09;79.19
74540;SHT31;63087;51.086;-115.332;2022-09-09T17:01:47;9.19;79.34
74540;SHT31;63087;51.086;-115.332;2022-09-09T17:04:21;9.30;79.30
74540;SHT31;63087;51.086;-115.332;2022-09-09T17:06:53;9.44;78.11
74540;SHT31;63087;51.086;-115.332;2022-09-09T17:09:22;9.60;77.83
74540;SHT31;63087;51.086;-115.332;2022-09-09T17:11:54;9.74;78.21
74540;SHT31;63087;51.086;-115.332;2022-09-09T17:14:21;9.89;77.78
74540;SHT31;63087;51.086;-115.332;2022-09-09T17:16:49;9.99;76.87
74540;SHT31;63087;51.086;-115.332;2022-09-09T17:19:16;10.08;76.28
74540;SHT31;63087;51.086;-115.332;2022-09-09T17:21:44;10.18;76.81
74540;SHT31;63087;51.086;-115.332;2022-09-09T17:24:14;10.29;76.32
74540;SHT31;63087;51.086;-115.332;2022-09-09T17:26:43;10.45;76.49
74540;SHT31;63087;51.086;-115.332;2022-09-09T17:29:11;10.52;75.38
74540;SHT31;63087;51.086;-115.332;2022-09-09T17:31:37;10.62;74.92
74540;SHT31;63087;51.086;-115.332;2022-09-09T17:34:07;10.81;76.46
74540;SHT31;63087;51.086;-115.332;2022-09-09T17:36:35;11.13;75.55
74540;SHT31;63087;51.086;-115.332;2022-09-09T17:39:04;11.46;75.16
74540;SHT31;63087;51.086;-115.332;2022-09-09T17:41:36;11.91;74.40
74540;SHT31;63087;51.086;-115.332;2022-09-09T17:44:05;12.41;73.91
74540;SHT31;63087;51.086;-115.332;2022-09-09T17:46:38;13.06;73.80
74540;SHT31;63087;51.086;-115.332;2022-09-09T17:49:08;13.81;73.30
74540;SHT31;63087;51.086;-115.332;2022-09-09T17:51:38;14.60;71.97
74540;SHT31;63087;51.086;-115.332;2022-09-09T17:54:08;15.41;70.71
74540;SHT31;63087;51.086;-115.332;2022-09-09T17:56:46;16.31;67.02
74540;SHT31;63087;51.086;-115.332;2022-09-09T17:59:14;17.24;67.27
74540;SHT31;63087;51.086;-115.332;2022-09-09T18:01:44;18.20;63.08
74540;SHT31;63087;51.086;-115.332;2022-09-09T18:04:17;19.15;62.23
74540;SHT31;63087;51.086;-115.332;2022-09-09T18:06:46;20.19;61.37
74540;SHT31;63087;51.086;-115.332;2022-09-09T18:09:20;21.23;59.02
74540;SHT31;63087;51.086;-115.332;2022-09-09T18:11:51;22.23;56.17
74540;SHT31;63087;51.086;-115.332;2022-09-09T18:14:23;23.24;53.88
74540;SHT31;63087;51.086;-115.332;2022-09-09T18:16:55;24.22;51.07